Data for 10/31/2010

Time Sea-Level Adjusted Pressure Absolute Pressure Temperature Relative Humidity Dew Point   
(mb) (inHg) (mb) (inHg) (C) (F) (%) (C) (F)
00:05 1015 29.97 844 24.92 6.9 44.4 67 1.2 34.1
00:10 1015 29.97 844 24.92 6.9 44.4 67 1.2 34.1
00:15 1015 29.97 844 24.92 7 44.6 69 1.6 34.9
00:20 1015 29.97 844 24.92 6.8 44.2 70 1.6 35
00:25 1015 29.97 844 24.92 6.5 43.7 71 1.6 34.8
00:30 1014 29.94 844 24.92 6.4 43.5 70 1.4 34.5
00:35 1015 29.97 844 24.92 6.4 43.6 71 1.7 35
00:40 1015 29.97 844 24.92 6.5 43.7 70 1.4 34.5
00:45 1015 29.97 844 24.92 6.4 43.5 71 1.5 34.8
00:50 1014 29.94 844 24.92 6.2 43.2 72 1.6 34.9
00:55 1014 29.94 844 24.92 5.9 42.6 74 1.6 34.8
01:00 1015 29.97 844 24.92 5.8 42.5 74 1.5 34.7
01:05 1015 29.97 844 24.92 5.9 42.7 73 1.4 34.5
01:10 1015 29.97 844 24.92 6.1 42.9 73 1.5 34.7
01:15 1015 29.97 844 24.92 5.9 42.6 73 1.5 34.7
01:20 1015 29.97 844 24.92 6 42.7 72 1.4 34.5
01:25 1015 29.97 844 24.92 6.1 42.9 72 1.4 34.5
01:30 1015 29.97 844 24.92 6.1 42.9 72 1.4 34.4
01:35 1015 29.97 844 24.92 6.1 43 72 1.4 34.5
01:40 1015 29.97 844 24.92 6 42.8 72 1.4 34.6
01:45 1015 29.97 844 24.92 5.8 42.5 73 1.3 34.4
01:50 1015 29.97 844 24.92 5.8 42.4 73 1.4 34.5
01:55 1015 29.97 844 24.92 5.9 42.6 72 1.3 34.3
02:00 1015 29.97 844 24.92 6 42.7 72 1.4 34.5
02:05 1015 29.97 844 24.92 5.9 42.6 74 1.5 34.8
02:10 1015 29.97 844 24.92 5.7 42.2 74 1.4 34.5
02:15 1015 29.97 844 24.92 5.6 42.1 74 1.4 34.5
02:20 1015 29.97 844 24.92 5.6 42 74 1.3 34.3
02:25 1015 29.97 844 24.92 5.4 41.7 75 1.4 34.5
02:30 1015 29.97 844 24.92 5.1 41.3 76 1.3 34.3
02:35 1015 29.97 844 24.92 5.1 41.1 75 1.1 33.9
02:40 1015 29.97 844 24.92 5.2 41.3 75 1.2 34.1
02:45 1015 29.97 844 24.92 5.3 41.5 75 1.3 34.3
02:50 1015 29.97 844 24.92 5.6 42 75 1.4 34.6
02:55 1015 29.97 844 24.92 5.5 42 75 1.4 34.5
03:00 1015 29.97 844 24.92 5.4 41.8 76 1.5 34.8
03:05 1015 29.97 844 24.92 4.9 40.7 78 1.4 34.5
03:10 1015 29.97 844 24.92 4.6 40.2 79 1.2 34.2
03:15 1015 29.97 844 24.92 4.9 40.8 78 1.4 34.5
03:20 1015 29.97 844 24.92 5 41 76 1.2 34.2
03:25 1015 29.97 844 24.92 5 41.1 77 1.3 34.3
03:30 1015 29.97 844 24.92 4.8 40.7 77 1.2 34.1
03:35 1015 29.97 844 24.92 5.1 41.1 77 1.3 34.3
03:40 1015 29.97 844 24.92 5.3 41.5 74 0.9 33.7
03:45 1015 29.97 844 24.92 5.6 42.1 74 1.3 34.3
03:50 1015 29.97 844 24.92 5.2 41.4 75 1.1 34
03:55 1015 29.97 845 24.95 5.1 41.1 76 1.1 34
04:00 1015 29.97 845 24.95 4.9 40.8 75 0.9 33.6
04:05 1015 29.97 844 24.92 5 41 75 0.9 33.6
04:10 1015 29.97 844 24.92 4.9 40.9 75 0.9 33.5
04:15 1015 29.97 845 24.95 4.9 40.9 75 0.9 33.6
04:20 1015 29.97 845 24.95 4.8 40.7 75 0.8 33.5
04:25 1015 29.97 845 24.95 5 41 74 0.8 33.4
04:30 1015 29.97 845 24.95 4.9 40.8 75 0.8 33.5
04:35 1015 29.97 845 24.95 4.7 40.5 77 1 33.7
04:40 1015 29.97 845 24.95 4.6 40.3 77 0.9 33.6
04:45 1015 29.97 845 24.95 4.5 40.1 78 0.9 33.6
04:50 1015 29.97 845 24.95 4.5 40.1 78 0.9 33.6
04:55 1015 29.97 845 24.95 4.1 39.4 80 0.9 33.7
05:00 1015 29.97 845 24.95 4.1 39.3 80 0.9 33.6
05:05 1015 29.97 845 24.95 4.5 40 76 0.6 33.1
05:10 1015 29.97 845 24.95 4.9 40.9 75 0.9 33.7
05:15 1015 29.97 845 24.95 4.8 40.7 76 0.9 33.6
05:20 1015 29.97 845 24.95 4.9 40.8 75 0.9 33.7
05:25 1015 29.97 845 24.95 4.8 40.6 76 1 33.7
05:30 1016 30 845 24.95 4.6 40.3 77 0.9 33.7
05:35 1016 30 845 24.95 4.6 40.3 77 0.9 33.6
05:40 1016 30 845 24.95 4.6 40.3 77 0.9 33.6
05:45 1016 30 845 24.95 4.7 40.4 76 0.9 33.6
05:50 1016 30 845 24.95 4.8 40.6 76 1 33.7
05:55 1016 30 845 24.95 4.7 40.4 77 1 33.8
06:00 1016 30 845 24.95 4.6 40.2 77 0.9 33.6
06:05 1016 30 845 24.95 4.7 40.4 77 1 33.8
06:10 1016 30 845 24.95 4.7 40.5 76 0.9 33.7
06:15 1016 30 845 24.95 4.8 40.7 76 0.9 33.6
06:20 1016 30 845 24.95 5 41 75 1 33.7
06:25 1016 30 845 24.95 5.1 41.1 75 1.1 33.9
06:30 1016 30 845 24.95 5 41 76 1.1 33.9
06:35 1016 30 845 24.95 4.8 40.7 77 1.2 34.1
06:40 1016 30 845 24.95 4.5 40.1 78 1 33.9
06:45 1016 30 845 24.95 4.4 39.9 79 1.1 34
06:50 1016 30 845 24.95 4.3 39.7 79 1 33.8
06:55 1016 30 845 24.95 4.4 39.8 79 1 33.7
07:00 1016 30 845 24.95 4.5 40.1 78 1 33.8
07:05 1016 30 845 24.95 4.6 40.4 77 0.9 33.7
07:10 1016 30 845 24.95 5 40.9 75 0.9 33.6
07:15 1016 30 845 24.95 5.1 41.2 75 1 33.8
07:20 1016 30 845 24.95 5.2 41.3 74 0.9 33.6
07:25 1016 30 845 24.95 5.4 41.7 73 1 33.8
07:30 1016 30 845 24.95 5.4 41.7 73 0.9 33.6
07:35 1016 30 845 24.95 5.5 41.8 73 1 33.9
07:40 1016 30 845 24.95 5.2 41.3 75 1.1 33.9
07:45 1016 30 845 24.95 4.9 40.9 76 1 33.7
07:50 1016 30 845 24.95 4.7 40.5 77 1 33.8
07:55 1016 30 845 24.95 4.6 40.2 77 1 33.7
08:00 1016 30 845 24.95 4.4 39.9 78 0.8 33.5
08:05 1016 30 845 24.95 4.4 39.8 79 1 33.7
08:10 1016 30 845 24.95 4.1 39.4 79 0.8 33.4
08:15 1016 30 845 24.95 4.3 39.7 77 0.7 33.3
08:20 1016 30 845 24.95 4.5 40.1 76 0.7 33.2
08:25 1016 30 845 24.95 4.8 40.6 76 0.8 33.5
08:30 1016 30 845 24.95 4.7 40.4 76 0.8 33.5
08:35 1016 30 845 24.95 4.6 40.3 76 0.8 33.4
08:40 1016 30 845 24.95 4.6 40.2 76 0.8 33.4
08:45 1016 30 845 24.95 4.8 40.6 75 0.7 33.3
08:50 1016 30 845 24.95 4.9 40.8 75 0.8 33.5
08:55 1016 30 845 24.95 5 41 74 0.8 33.5
09:00 1016 30 845 24.95 5.2 41.4 74 0.9 33.6
09:05 1016 30 846 24.98 5.4 41.8 73 0.9 33.7
09:10 1016 30 846 24.98 5.6 42 73 1 33.8
09:15 1016 30 846 24.98 5.7 42.3 71 0.9 33.6
09:20 1016 30 846 24.98 5.9 42.6 71 1.1 34
09:25 1016 30 846 24.98 6.1 43 69 0.9 33.6
09:30 1016 30 846 24.98 6.2 43.1 70 1.1 34.1
09:35 1016 30 846 24.98 6.1 42.9 71 1.2 34.2
09:40 1016 30 846 24.98 6.3 43.4 69 1.1 34
09:45 1016 30 846 24.98 6.5 43.8 69 1.3 34.3
09:50 1017 30.03 846 24.98 6.8 44.2 68 1.3 34.3
09:55 1017 30.03 846 24.98 7 44.6 66 1.1 34
10:00 1017 30.03 846 24.98 7.3 45.1 66 1.3 34.3
10:05 1017 30.03 846 24.98 7.6 45.6 64 1.3 34.3
10:10 1017 30.03 846 24.98 7.8 46.1 64 1.4 34.5
10:15 1017 30.03 846 24.98 7.9 46.1 64 1.6 34.8
10:20 1017 30.03 846 24.98 7.9 46.2 64 1.6 34.8
10:25 1017 30.03 846 24.98 8 46.5 63 1.4 34.6
10:30 1017 30.03 846 24.98 8.4 47.2 63 1.8 35.2
10:35 1017 30.03 846 24.98 8.5 47.2 66 2.4 36.4
10:40 1017 30.03 846 24.98 8 46.4 69 2.8 37
10:45 1017 30.03 846 24.98 7.6 45.7 71 2.6 36.7
10:50 1017 30.03 846 24.98 7.2 45 73 2.6 36.7
10:55 1017 30.03 846 24.98 6.7 44.1 74 2.5 36.5
11:00 1017 30.03 846 24.98 6.4 43.5 75 2.4 36.3
11:05 1017 30.03 846 24.98 6.2 43.1 76 2.3 36.1
11:10 1017 30.03 846 24.98 6.3 43.3 75 2.1 35.8
11:15 1017 30.03 846 24.98 6.5 43.7 72 1.9 35.4
11:20 1017 30.03 846 24.98 7.1 44.8 69 1.9 35.4
11:25 1017 30.03 847 25.01 8.3 46.9 65 2.1 35.8
11:30 1017 30.03 847 25.01 8.8 47.8 63 2.2 36
11:35 1017 30.03 847 25.01 9.1 48.4 62 2.3 36.1
11:40 1017 30.03 847 25.01 9 48.2 64 2.6 36.7
11:45 1017 30.03 847 25.01 8.5 47.3 65 2.4 36.4
11:50 1017 30.03 847 25.01 8.3 47 65 2.1 35.8
11:55 1017 30.03 847 25.01 8.9 48.1 62 2 35.7
12:00 1018 30.06 847 25.01 9.4 48.9 59 1.9 35.5
12:05 1018 30.06 847 25.01 9.4 49 60 2 35.6
12:10 1018 30.06 847 25.01 9.4 48.8 58 1.6 34.9
12:15 1018 30.06 847 25.01 9.6 49.2 58 1.8 35.2
12:20 1018 30.06 847 25.01 9.6 49.2 59 2 35.5
12:25 1018 30.06 847 25.01 9.7 49.4 59 2 35.7
12:30 1018 30.06 847 25.01 9.8 49.6 58 1.9 35.4
12:35 1018 30.06 847 25.01 10.2 50.3 55 1.7 35
12:40 1018 30.06 847 25.01 10.4 50.8 55 1.9 35.3
12:45 1018 30.06 847 25.01 10.9 51.6 55 2.1 35.8
12:50 1017 30.03 847 25.01 10.7 51.2 55 1.9 35.5
12:55 1017 30.03 847 25.01 10.9 51.5 54 2 35.6
13:00 1017 30.03 847 25.01 10.3 50.6 55 1.8 35.2
13:05 1017 30.03 847 25.01 10.4 50.8 55 1.9 35.4
13:10 1017 30.03 847 25.01 10.7 51.3 54 1.7 35.1
13:15 1017 30.03 847 25.01 11 51.9 51 1.3 34.4
13:20 1017 30.03 847 25.01 11.3 52.4 50 1.3 34.3
13:25 1017 30.03 847 25.01 11.5 52.7 51 1.7 35
13:30 1017 30.03 846 24.98 11.2 52.1 51 1.4 34.4
13:35 1017 30.03 847 25.01 10.9 51.5 52 1.4 34.6
13:40 1017 30.03 847 25.01 10.5 51 56 2.1 35.9
13:45 1017 30.03 847 25.01 10.4 50.8 60 3 37.3
13:50 1017 30.03 847 25.01 10.2 50.3 60 2.7 36.9
13:55 1017 30.03 847 25.01 10 50.1 60 2.7 36.8
14:00 1017 30.03 847 25.01 9.9 49.8 63 3.2 37.8
14:05 1017 30.03 847 25.01 9.8 49.6 62 2.8 37
14:10 1018 30.06 847 25.01 9.8 49.7 64 3.3 37.9
14:15 1018 30.06 847 25.01 9.6 49.3 63 3 37.4
14:20 1018 30.06 847 25.01 9.1 48.3 67 3.3 37.9
14:25 1018 30.06 847 25.01 7.7 45.9 74 3.4 38.1
14:30 1018 30.06 847 25.01 6.8 44.2 80 3.5 38.4
14:35 1018 30.06 847 25.01 6.3 43.3 81 3.3 37.9
14:40 1018 30.06 847 25.01 6 42.8 82 3.1 37.6
14:45 1018 30.06 847 25.01 5.7 42.3 83 3.1 37.6
14:50 1018 30.06 847 25.01 5.6 42.1 84 3.2 37.8
14:55 1018 30.06 848 25.04 5.6 42.2 82 2.9 37.1
15:00 1018 30.06 848 25.04 5.8 42.4 81 2.7 36.9
15:05 1018 30.06 848 25.04 5.9 42.5 78 2.3 36.2
15:10 1018 30.06 848 25.04 6 42.9 80 2.8 37
15:15 1018 30.06 848 25.04 6.1 42.9 81 3.1 37.6
15:20 1018 30.06 848 25.04 6 42.8 81 3 37.4
15:25 1018 30.06 848 25.04 5.6 42.1 84 3.2 37.7
15:30 1018 30.06 848 25.04 5.5 41.9 84 3.1 37.6
15:35 1018 30.06 848 25.04 5.6 42.1 84 3.1 37.5
15:40 1018 30.06 848 25.04 5.6 42.1 85 3.3 37.9
15:45 1018 30.06 848 25.04 5.7 42.3 83 3.1 37.5
15:50 1019 30.09 848 25.04 5.8 42.4 83 3.1 37.6
15:55 1019 30.09 848 25.04 5.8 42.4 82 2.9 37.2
16:00 1019 30.09 848 25.04 5.9 42.6 82 3.1 37.5
16:05 1019 30.09 848 25.04 6 42.7 82 3.1 37.6
16:10 1019 30.09 848 25.04 6.1 43 83 3.4 38.2
16:15 1019 30.09 848 25.04 6.3 43.3 82 3.4 38.1
16:20 1019 30.09 848 25.04 6 42.9 83 3.3 37.9
16:25 1019 30.09 848 25.04 6.2 43.1 78 2.7 36.8
16:30 1019 30.09 848 25.04 6.8 44.3 72 2.2 36
16:35 1019 30.09 848 25.04 7.4 45.3 71 2.5 36.6
16:40 1019 30.09 848 25.04 7.9 46.2 68 2.4 36.4
16:45 1019 30.09 848 25.04 8.2 46.7 69 2.8 37
16:50 1019 30.09 848 25.04 8.4 47.1 70 3.2 37.8
16:55 1019 30.09 848 25.04 7.5 45.4 77 3.7 38.6
17:00 1019 30.09 848 25.04 6.9 44.4 76 3 37.3
17:05 1019 30.09 849 25.07 6.9 44.4 75 2.7 36.8
17:10 1019 30.09 849 25.07 7 44.6 74 2.8 37
17:15 1019 30.09 849 25.07 7.2 45 73 2.6 36.8
17:20 1019 30.09 849 25.07 7.8 46 71 2.9 37.2
17:25 1020 30.12 849 25.07 8.2 46.7 71 3.3 38
17:30 1020 30.12 849 25.07 8.4 47.1 71 3.4 38.2
17:35 1020 30.12 849 25.07 8.5 47.4 70 3.4 38.1
17:40 1020 30.12 849 25.07 8.6 47.4 71 3.7 38.7
17:45 1020 30.12 849 25.07 8.1 46.6 74 3.7 38.7
17:50 1020 30.12 849 25.07 8 46.4 71 3.2 37.7
17:55 1020 30.12 849 25.07 7.9 46.2 73 3.3 38
18:00 1020 30.12 849 25.07 7.6 45.7 76 3.6 38.5
18:05 1020 30.12 849 25.07 7.2 44.9 74 2.9 37.3
18:10 1020 30.12 849 25.07 7.1 44.7 72 2.4 36.3
18:15 1020 30.12 849 25.07 7.1 44.8 72 2.4 36.4
18:20 1020 30.12 849 25.07 7.1 44.8 75 3 37.3
18:25 1020 30.12 850 25.1 6.9 44.3 77 3.1 37.5
18:30 1020 30.12 850 25.1 6.8 44.2 75 2.7 36.8
18:35 1021 30.15 850 25.1 6.9 44.4 72 2.3 36.1
18:40 1021 30.15 850 25.1 7.2 44.9 72 2.5 36.5
18:45 1021 30.15 850 25.1 7.3 45.1 74 3 37.4
18:50 1021 30.15 850 25.1 7.2 44.9 75 3 37.4
18:55 1021 30.15 850 25.1 7.1 44.8 78 3.5 38.2
19:00 1021 30.15 850 25.1 7 44.5 75 2.9 37.2
19:05 1021 30.15 850 25.1 6.8 44.2 78 3.1 37.6
19:10 1021 30.15 850 25.1 6.4 43.6 77 2.7 36.8
19:15 1021 30.15 850 25.1 6.5 43.8 77 2.9 37.2
19:20 1021 30.15 850 25.1 6.3 43.3 80 3.2 37.7
19:25 1021 30.15 851 25.13 6.2 43.1 79 2.8 37
19:30 1021 30.15 851 25.13 6.3 43.3 76 2.3 36.2
19:35 1021 30.15 851 25.13 6.4 43.5 75 2.3 36.2
19:40 1021 30.15 851 25.13 6.5 43.6 75 2.3 36.2
19:45 1022 30.18 851 25.13 6.4 43.6 78 2.9 37.2
19:50 1022 30.18 851 25.13 6.2 43.1 80 3 37.3
19:55 1022 30.18 851 25.13 6 42.8 80 2.9 37.2
20:00 1022 30.18 851 25.13 6 42.8 80 2.9 37.2
20:05 1022 30.18 851 25.13 6.1 43 78 2.6 36.7
20:10 1022 30.18 851 25.13 6.3 43.3 76 2.3 36.2
20:15 1022 30.18 851 25.13 6.3 43.4 75 2.1 35.8
20:20 1022 30.18 851 25.13 6.5 43.7 75 2.3 36.2
20:25 1022 30.18 851 25.13 6.6 43.9 73 2.2 35.9
20:30 1022 30.18 851 25.13 6.4 43.4 77 2.7 36.9
20:35 1022 30.18 851 25.13 6.1 43 78 2.6 36.7
20:40 1022 30.18 852 25.16 6 42.8 78 2.5 36.5
20:45 1023 30.21 852 25.16 6.3 43.4 74 2 35.6
20:50 1023 30.21 852 25.16 6.5 43.6 73 2 35.7
20:55 1023 30.21 852 25.16 6.3 43.3 75 2.1 35.8
21:00 1023 30.21 852 25.16 6.2 43.2 74 2 35.6
21:05 1023 30.21 852 25.16 6.2 43.2 76 2.4 36.2
21:10 1023 30.21 852 25.16 6.1 43 78 2.7 36.8
21:15 1023 30.21 852 25.16 6 42.8 79 2.6 36.8
21:20 1023 30.21 852 25.16 6 42.7 80 2.8 37
21:25 1023 30.21 852 25.16 6 42.8 78 2.4 36.3
21:30 1023 30.21 852 25.16 6.3 43.3 73 1.8 35.3
21:35 1023 30.21 852 25.16 6.3 43.3 76 2.3 36.2
21:40 1023 30.21 853 25.19 5.8 42.5 80 2.6 36.7
21:45 1023 30.21 853 25.19 5.4 41.7 80 2.2 36
21:50 1023 30.21 853 25.19 5.4 41.6 79 2.1 35.7
21:55 1023 30.21 853 25.19 5.4 41.8 78 1.8 35.3
22:00 1024 30.24 853 25.19 5.3 41.6 78 1.8 35.3
22:05 1024 30.24 853 25.19 5.3 41.6 77 1.6 34.8
22:10 1024 30.24 853 25.19 5.5 41.9 76 1.7 35
22:15 1024 30.24 853 25.19 5.5 41.9 77 1.7 35.1
22:20 1024 30.24 853 25.19 5.4 41.8 78 1.8 35.3
22:25 1024 30.24 853 25.19 5.6 42 77 1.9 35.4
22:30 1024 30.24 853 25.19 5.5 41.9 79 2.1 35.8
22:35 1024 30.24 853 25.19 5.3 41.5 80 2 35.6
22:40 1024 30.24 853 25.19 5.3 41.5 79 1.9 35.3
22:45 1024 30.24 853 25.19 5.5 41.9 77 1.8 35.3
22:50 1024 30.24 853 25.19 5.5 41.9 77 1.8 35.2
22:55 1024 30.24 853 25.19 5.4 41.8 76 1.5 34.6
23:00 1024 30.24 853 25.19 5.5 41.9 76 1.6 34.9
23:05 1024 30.24 853 25.19 5.4 41.7 79 2 35.6
23:10 1024 30.24 853 25.19 5.4 41.8 79 2.1 35.9
23:15 1024 30.24 853 25.19 5.3 41.5 80 2 35.7
23:20 1024 30.24 854 25.22 5.3 41.5 80 2.1 35.7
23:25 1024 30.24 854 25.22 5.4 41.8 76 1.5 34.7
23:30 1024 30.24 854 25.22 5.5 41.9 75 1.4 34.6
23:35 1024 30.24 854 25.22 5.5 41.8 76 1.6 35
23:40 1024 30.24 854 25.22 5.2 41.3 78 1.7 35
23:45 1024 30.24 854 25.22 5.1 41.1 78 1.6 34.9
23:50 1024 30.24 854 25.22 5.1 41.3 80 1.9 35.4
23:55 1025 30.27 854 25.22 5.2 41.3 78 1.7 35.1
24:00 1025 30.27 854 25.22 5.2 41.3 78 1.6 34.9